createdAt,value
2023-03-27T06:47:55.568Z,99590.38
2023-03-27T06:50:51.458Z,99592.66
2023-03-27T06:53:27.713Z,99600.66
2023-03-27T06:55:57.766Z,99607.41
2023-03-27T06:58:34.787Z,99606.72
2023-03-27T07:01:08.253Z,99599.50
2023-03-27T07:03:58.955Z,99607.16
2023-03-27T07:06:50.834Z,99609.63
2023-03-27T07:09:21.869Z,99610.22
2023-03-27T07:12:04.315Z,99613.69
2023-03-27T07:14:36.620Z,99620.34
2023-03-27T07:17:09.762Z,99627.09
2023-03-27T07:19:53.167Z,99617.22
2023-03-27T07:22:28.042Z,99631.31
2023-03-27T07:25:05.923Z,99631.38
2023-03-27T07:27:40.088Z,99635.28
2023-03-27T07:30:12.282Z,99624.28
2023-03-27T07:32:50.747Z,99625.53
2023-03-27T07:35:22.002Z,99624.97
2023-03-27T07:38:27.683Z,99616.63
2023-03-27T07:41:23.125Z,99619.94
2023-03-27T07:44:24.008Z,99623.28
2023-03-27T07:47:08.157Z,99625.25
2023-03-27T07:49:45.482Z,99614.19
2023-03-27T07:52:20.851Z,99617.16
2023-03-27T07:55:03.764Z,99617.91
2023-03-27T07:57:57.969Z,99614.97
2023-03-27T08:00:41.791Z,99628.88
2023-03-27T08:03:16.266Z,99622.03
2023-03-27T08:05:59.844Z,99638.16
2023-03-27T08:08:34.091Z,99642.44
2023-03-27T08:11:23.196Z,99642.31
2023-03-27T08:13:58.596Z,99640.25
2023-03-27T08:16:34.053Z,99643.81
2023-03-27T08:19:07.128Z,99628.28
2023-03-27T08:21:39.419Z,99633.91
2023-03-27T08:24:07.702Z,99629.72
2023-03-27T08:26:37.853Z,99635.34
2023-03-27T08:29:13.195Z,99633.75
2023-03-27T08:31:52.261Z,99639.28
2023-03-27T08:34:28.087Z,99632.63
2023-03-27T08:36:55.903Z,99633.47
2023-03-27T08:39:33.022Z,99627.81
2023-03-27T08:42:13.699Z,99642.25
2023-03-27T08:44:56.283Z,99640.78
2023-03-27T08:47:47.716Z,99652.19
2023-03-27T08:50:44.205Z,99655.69
2023-03-27T08:53:48.964Z,99658.44
2023-03-27T08:56:31.948Z,99665.84
2023-03-27T08:59:05.830Z,99668.88
2023-03-27T09:01:58.050Z,99666.13
2023-03-27T09:04:34.253Z,99683.97
2023-03-27T09:07:28.664Z,99675.09
2023-03-27T09:10:33.620Z,99674.88
2023-03-27T09:13:38.728Z,99685.56
2023-03-27T09:16:32.454Z,99679.88
2023-03-27T09:19:14.212Z,99687.31
2023-03-27T09:21:51.527Z,99687.88
2023-03-27T09:24:46.835Z,99684.88
2023-03-27T09:27:46.442Z,99683.00
2023-03-27T09:30:47.573Z,99690.41
2023-03-27T09:33:33.720Z,99689.34
2023-03-27T09:36:12.575Z,99702.16
2023-03-27T09:38:51.452Z,99697.94
2023-03-27T09:41:42.628Z,99702.25
2023-03-27T09:44:28.226Z,99700.72
2023-03-27T09:47:11.119Z,99701.09
2023-03-27T09:49:52.964Z,99706.19
2023-03-27T09:52:46.207Z,99703.81
2023-03-27T09:55:35.533Z,99707.66
2023-03-27T09:58:22.456Z,99714.53
2023-03-27T10:01:09.919Z,99719.28
2023-03-27T10:03:42.127Z,99710.78
2023-03-27T10:06:17.236Z,99714.34
2023-03-27T10:09:02.390Z,99712.72
2023-03-27T10:11:42.092Z,99719.09
2023-03-27T10:14:26.359Z,99714.28
2023-03-27T10:17:01.720Z,99712.09
2023-03-27T10:19:38.737Z,99714.44
2023-03-27T10:22:32.124Z,99713.78
2023-03-27T10:25:18.214Z,99716.31
2023-03-27T10:28:18.665Z,99717.66
2023-03-27T10:31:36.322Z,99728.63
2023-03-27T10:34:38.394Z,99732.16
2023-03-27T10:37:34.161Z,99730.72
2023-03-27T10:40:44.305Z,99729.53
2023-03-27T10:43:36.068Z,99741.56
2023-03-27T10:46:17.213Z,99734.72
2023-03-27T10:49:17.500Z,99738.78
2023-03-27T10:52:32.468Z,99731.94
2023-03-27T10:55:41.549Z,99726.78
2023-03-27T10:58:36.704Z,99734.47
2023-03-27T11:01:29.196Z,99732.06
2023-03-27T11:04:19.209Z,99730.59
2023-03-27T11:06:59.860Z,99731.81
2023-03-27T11:09:53.668Z,99732.63
2023-03-27T11:12:30.561Z,99735.44
2023-03-27T11:15:19.835Z,99741.16
2023-03-27T11:18:28.535Z,99746.03
2023-03-27T11:21:20.793Z,99742.88
2023-03-27T11:24:09.697Z,99748.53
2023-03-27T11:27:05.281Z,99741.16
2023-03-27T11:29:46.748Z,99742.88
2023-03-27T11:32:43.915Z,99737.66
2023-03-27T11:35:28.949Z,99735.25
2023-03-27T11:38:23.188Z,99730.47
2023-03-27T11:40:56.763Z,99736.88
2023-03-27T11:43:40.450Z,99735.28
2023-03-27T11:46:51.784Z,99744.13
2023-03-27T11:49:55.311Z,99740.94
2023-03-27T11:52:50.366Z,99748.63
2023-03-27T11:55:42.825Z,99759.63
2023-03-27T11:58:19.718Z,99760.81
2023-03-27T12:01:32.311Z,99756.38
2023-03-27T12:04:21.869Z,99751.97
2023-03-27T12:07:47.699Z,99757.22
2023-03-27T12:10:43.846Z,99758.88
2023-03-27T12:13:58.160Z,99759.28
2023-03-27T12:16:56.300Z,99758.56
2023-03-27T12:19:49.733Z,99750.81
2023-03-27T12:22:52.079Z,99753.16
2023-03-27T12:25:54.646Z,99756.09
2023-03-27T12:29:24.504Z,99764.94
2023-03-27T12:32:25.696Z,99762.78
2023-03-27T12:34:59.071Z,99771.91
2023-03-27T12:38:00.065Z,99777.97
2023-03-27T12:40:33.424Z,99780.41
2023-03-27T12:43:32.646Z,99787.75
2023-03-27T12:46:25.681Z,99787.69
2023-03-27T12:49:00.427Z,99778.44
2023-03-27T12:51:51.256Z,99782.97
2023-03-27T12:55:31.021Z,99770.03
2023-03-27T12:58:14.779Z,99773.72
2023-03-27T13:01:00.867Z,99780.13
2023-03-27T13:04:26.466Z,99773.25
2023-03-27T13:07:13.480Z,99772.19
2023-03-27T13:10:26.741Z,99775.47
2023-03-27T13:13:20.699Z,99767.03
2023-03-27T13:16:19.703Z,99770.59
2023-03-27T13:19:13.255Z,99767.19
2023-03-27T13:22:29.970Z,99770.88
2023-03-27T13:25:12.761Z,99770.41
2023-03-27T13:28:11.157Z,99776.50
2023-03-27T13:30:58.086Z,99778.97
2023-03-27T13:34:08.628Z,99781.34
2023-03-27T13:37:15.282Z,99779.53
2023-03-27T13:40:08.681Z,99774.22
2023-03-27T13:42:47.874Z,99776.38
2023-03-27T13:45:32.296Z,99779.69
2023-03-27T13:49:07.304Z,99781.53
2023-03-27T13:52:10.854Z,99784.41
2023-03-27T13:55:16.904Z,99788.94
2023-03-27T13:58:32.718Z,99790.84
2023-03-27T14:01:18.721Z,99796.19
2023-03-27T14:04:18.359Z,99796.19
2023-03-27T14:07:11.399Z,99793.72
2023-03-27T14:10:03.813Z,99789.31
2023-03-27T14:13:10.268Z,99791.34
2023-03-27T14:15:59.701Z,99806.84
2023-03-27T14:18:38.776Z,99803.00
2023-03-27T14:21:31.435Z,99802.97
2023-03-27T14:24:23.056Z,99809.41
2023-03-27T14:27:04.186Z,99810.44
2023-03-27T14:29:32.711Z,99810.50
2023-03-27T14:32:09.037Z,99811.56
2023-03-27T14:34:53.374Z,99811.44
2023-03-27T14:37:39.374Z,99810.16
2023-03-27T14:40:45.472Z,99810.66
2023-03-27T14:43:21.274Z,99809.50
2023-03-27T14:45:59.880Z,99811.38
2023-03-27T14:48:44.351Z,99828.34
2023-03-27T14:51:37.655Z,99825.78
2023-03-27T14:54:27.027Z,99836.78
2023-03-27T14:57:09.451Z,99833.81
2023-03-27T14:59:49.922Z,99841.44
2023-03-27T15:02:29.012Z,99843.22
2023-03-27T15:05:27.931Z,99848.47
2023-03-27T15:08:21.042Z,99863.38
2023-03-27T15:11:17.766Z,99868.41
2023-03-27T15:14:14.103Z,99870.28
2023-03-27T15:16:50.621Z,99876.81
2023-03-27T15:19:26.277Z,99886.53
2023-03-27T15:22:07.589Z,99894.16
2023-03-27T15:24:50.971Z,99901.31
2023-03-27T15:27:30.221Z,99910.06
2023-03-27T15:30:09.134Z,99910.56
2023-03-27T15:32:50.940Z,99917.47
2023-03-27T15:35:31.617Z,99916.81
2023-03-27T15:38:06.436Z,99922.75
2023-03-27T15:40:43.044Z,99928.75
2023-03-27T15:43:14.035Z,99934.81
2023-03-27T15:46:02.765Z,99924.16
2023-03-27T15:48:37.820Z,99933.84
2023-03-27T15:51:14.850Z,99941.13
2023-03-27T15:54:08.722Z,99941.88
2023-03-27T15:56:44.997Z,99942.69
2023-03-27T15:59:22.484Z,99947.94
2023-03-27T16:02:01.332Z,99953.91
2023-03-27T16:04:58.594Z,99966.09
2023-03-27T16:07:39.271Z,99968.19
2023-03-27T16:10:36.504Z,99979.44
2023-03-27T16:13:31.761Z,99981.47
2023-03-27T16:16:19.066Z,99979.47
2023-03-27T16:18:54.023Z,99982.72
2023-03-27T16:21:37.319Z,99988.38
2023-03-27T16:24:11.024Z,100004.09
2023-03-27T16:26:49.515Z,100008.97
2023-03-27T16:29:25.579Z,100013.09
2023-03-27T16:32:03.754Z,100009.44
2023-03-27T16:34:40.687Z,100012.72
2023-03-27T16:37:17.669Z,100027.16
2023-03-27T16:39:56.375Z,100024.34
2023-03-27T16:42:38.353Z,100037.25
2023-03-27T16:45:16.852Z,100044.19
2023-03-27T16:47:53.077Z,100053.03
2023-03-27T16:50:29.118Z,100064.34
2023-03-27T16:53:08.741Z,100074.06
2023-03-27T16:55:51.045Z,100069.22
2023-03-27T16:58:19.932Z,100085.69
2023-03-27T17:00:50.863Z,100085.72
2023-03-27T17:03:31.232Z,100087.41
2023-03-27T17:06:09.533Z,100102.63
2023-03-27T17:08:55.626Z,100105.53
2023-03-27T17:11:31.568Z,100106.31
2023-03-27T17:14:08.587Z,100112.78
2023-03-27T17:16:37.399Z,100123.66
2023-03-27T17:19:11.687Z,100143.50
2023-03-27T17:22:01.121Z,100140.69
2023-03-27T17:24:45.678Z,100152.41
2023-03-27T17:27:33.104Z,100161.69
2023-03-27T17:30:10.192Z,100165.34
2023-03-27T17:32:42.912Z,100181.91
2023-03-27T17:35:24.098Z,100186.38
2023-03-27T17:37:56.574Z,100179.09
2023-03-27T17:40:24.370Z,100185.59
2023-03-27T17:42:53.022Z,100197.28
2023-03-27T17:45:23.950Z,100203.78
2023-03-27T17:47:54.940Z,100208.63
2023-03-27T17:50:26.249Z,100214.69
2023-03-27T17:52:56.790Z,100220.31
2023-03-27T17:55:27.317Z,100223.13
2023-03-27T17:58:08.829Z,100226.38
2023-03-27T18:00:45.168Z,100234.09
2023-03-27T18:03:21.544Z,100240.16
2023-03-27T18:05:56.639Z,100253.09
2023-03-27T18:08:27.376Z,100262.81
2023-03-27T18:11:00.950Z,100264.41
2023-03-27T18:13:33.069Z,100276.56
2023-03-27T18:16:10.725Z,100286.25
2023-03-27T18:18:48.943Z,100307.59
2023-03-27T18:21:25.124Z,100316.53
2023-03-27T18:24:01.356Z,100311.69
2023-03-27T18:26:37.203Z,100312.50
2023-03-27T18:29:10.960Z,100319.78
2023-03-27T18:31:47.299Z,100330.69
2023-03-27T18:34:16.529Z,100326.25
2023-03-27T18:36:51.808Z,100339.94
2023-03-27T18:39:24.671Z,100346.44
2023-03-27T18:42:01.575Z,100354.88
2023-03-27T18:44:32.859Z,100364.53
2023-03-27T18:47:05.684Z,100366.59
2023-03-27T18:49:39.869Z,100372.66
2023-03-27T18:52:12.134Z,100384.38
2023-03-27T18:54:53.305Z,100388.81
2023-03-27T18:57:27.888Z,100385.16
2023-03-27T19:00:09.283Z,100398.94
2023-03-27T19:02:45.694Z,100394.06
2023-03-27T19:05:19.310Z,100393.31
2023-03-27T19:07:57.671Z,100409.84
2023-03-27T19:10:34.973Z,100422.75
2023-03-27T19:13:28.546Z,100423.19
2023-03-27T19:16:26.137Z,100436.94
2023-03-27T19:19:00.867Z,100443.41
2023-03-27T19:21:52.268Z,100457.94
2023-03-27T19:24:37.148Z,100449.44
2023-03-27T19:27:08.505Z,100459.97
2023-03-27T19:29:54.790Z,100472.09
2023-03-27T19:32:29.427Z,100488.25
2023-03-27T19:35:05.462Z,100482.19
2023-03-27T19:37:37.301Z,100491.47
2023-03-27T19:40:14.394Z,100487.44
2023-03-27T19:42:45.015Z,100496.72
2023-03-27T19:45:16.414Z,100501.56
2023-03-27T19:47:55.719Z,100504.00
2023-03-27T19:50:34.645Z,100521.34
2023-03-27T19:53:18.496Z,100526.19
2023-03-27T19:55:49.353Z,100528.63
2023-03-27T19:58:26.684Z,100537.91
2023-03-27T20:01:04.762Z,100537.50
2023-03-27T20:03:39.976Z,100558.50
2023-03-27T20:06:18.573Z,100553.25
2023-03-27T20:08:52.020Z,100565.38
2023-03-27T20:11:33.589Z,100568.63
2023-03-27T20:14:09.485Z,100564.13
2023-03-27T20:16:43.556Z,100572.63
2023-03-27T20:19:21.975Z,100574.25
2023-03-27T20:22:00.761Z,100586.75
2023-03-27T20:24:43.765Z,100592.81
2023-03-27T20:27:20.108Z,100583.16
2023-03-27T20:29:54.636Z,100597.69
2023-03-27T20:32:27.556Z,100615.84
2023-03-27T20:35:23.012Z,100628.78
2023-03-27T20:38:08.714Z,100638.44
2023-03-27T20:43:22.840Z,100663.09
2023-03-27T20:45:55.083Z,100658.66
2023-03-27T20:48:41.760Z,100679.25
2023-03-27T20:51:24.964Z,100676.41
2023-03-27T20:54:00.131Z,100701.84
2023-03-27T20:56:34.384Z,100696.59
2023-03-27T20:59:11.310Z,100694.16
2023-03-27T21:01:50.725Z,100707.88
2023-03-27T21:04:28.265Z,100725.63
2023-03-27T21:07:05.109Z,100725.63
2023-03-27T21:09:38.609Z,100725.69
2023-03-27T21:12:12.946Z,100729.72
2023-03-27T21:14:44.131Z,100748.69
2023-03-27T21:17:20.861Z,100757.94
2023-03-27T21:19:54.055Z,100771.25
2023-03-27T21:22:32.770Z,100757.53
2023-03-27T21:25:11.645Z,100785.44
2023-03-27T21:27:51.506Z,100775.78
2023-03-27T21:30:46.952Z,100793.91
2023-03-27T21:33:21.830Z,100795.88
2023-03-27T21:35:54.933Z,100822.13
2023-03-27T21:38:28.631Z,100814.44
2023-03-27T21:41:03.302Z,100807.19
2023-03-27T21:43:36.684Z,100818.44
2023-03-27T21:46:07.205Z,100820.47
2023-03-27T21:48:48.556Z,100822.47
2023-03-27T21:51:27.295Z,100825.72
2023-03-27T21:54:02.550Z,100831.38
2023-03-27T21:56:44.526Z,100828.09
2023-03-27T21:59:18.322Z,100836.13
2023-03-27T22:01:54.190Z,100841.78
2023-03-27T22:04:32.916Z,100841.44
2023-03-27T22:07:08.449Z,100854.34
2023-03-27T22:09:45.460Z,100855.94
2023-03-27T22:12:16.793Z,100855.63
2023-03-27T22:14:55.492Z,100864.50
2023-03-27T22:17:34.257Z,100874.59
2023-03-27T22:20:13.373Z,100872.22
2023-03-27T22:22:43.674Z,100866.59
2023-03-27T22:25:19.889Z,100881.50
2023-03-27T22:27:55.052Z,100889.59
2023-03-27T22:30:32.487Z,100890.75
2023-03-27T22:33:10.176Z,100889.53
2023-03-27T22:35:48.011Z,100906.91
2023-03-27T22:38:20.702Z,100908.09
2023-03-27T22:40:56.060Z,100906.91
2023-03-27T22:43:32.456Z,100923.06
2023-03-27T22:46:29.539Z,100922.63
2023-03-27T22:49:11.045Z,100931.91
2023-03-27T22:51:44.400Z,100932.69
2023-03-27T22:54:27.983Z,100939.91
2023-03-27T22:57:02.657Z,100952.81
2023-03-27T22:59:36.497Z,100951.97
2023-03-27T23:02:12.841Z,100960.00
2023-03-27T23:04:54.566Z,100973.75
2023-03-27T23:07:32.677Z,100981.44
2023-03-27T23:10:15.081Z,100987.47
2023-03-27T23:12:51.418Z,100995.13
2023-03-27T23:15:35.853Z,100993.53
2023-03-27T23:18:13.397Z,101002.78
2023-03-27T23:20:44.887Z,101014.91
2023-03-27T23:23:19.346Z,101018.63
2023-03-27T23:25:57.935Z,101022.16
2023-03-27T23:28:42.904Z,101030.63
2023-03-27T23:31:25.628Z,101026.66
2023-03-27T23:33:59.894Z,101037.94
2023-03-27T23:36:38.636Z,101031.84
2023-03-27T23:39:17.583Z,101044.75
2023-03-27T23:41:56.943Z,101051.25
2023-03-27T23:44:30.648Z,101060.06
2023-03-27T23:47:06.464Z,101065.72
2023-03-27T23:49:45.776Z,101071.38
2023-03-27T23:52:19.777Z,101065.28
2023-03-27T23:55:04.852Z,101086.75
2023-03-27T23:57:43.422Z,101086.69
